Time;durP1;ratioP1;P1;durP2;ratioP2;P2;SDS_P1;SDS_P2;PMS_P1;PMS_P2;Temp;Humidity;BMP_temperature;BMP_pressure;BME280_temperature;BME280_humidity;BME280_pressure;Samples;Min_cycle;Max_cycle;Signal;HPM_P1;HPM_P2
2023/11/25 00:01:36;;;;;;;0.10;0.10;;;;;;;-0.29;90.01;101093.50;4851561;29;20041;-78
2023/11/25 00:04:01;;;;;;;0.10;0.10;;;;;;;-0.15;90.48;101102.63;4850405;29;20041;-78
2023/11/25 00:06:27;;;;;;;0.03;0.03;;;;;;;-0.09;90.41;101109.16;4838076;29;20472;-77
2023/11/25 00:08:53;;;;;;;0.10;0.10;;;;;;;-0.27;90.63;101080.72;4858380;29;20045;-79
2023/11/25 00:11:21;;;;;;;0.10;0.10;;;;;;;-0.20;90.36;101103.19;4876575;29;20028;-78
2023/11/25 00:13:46;;;;;;;0.10;0.10;;;;;;;-0.20;90.14;101073.59;4835712;29;20111;-78
2023/11/25 00:16:12;;;;;;;0.10;0.10;;;;;;;-0.19;90.13;101071.75;4838109;29;20552;-78
2023/11/25 00:18:40;;;;;;;0.10;0.10;;;;;;;-0.22;90.20;101072.97;4833842;29;20476;-80
2023/11/25 00:21:08;;;;;;;0.00;0.00;;;;;;;-0.24;90.96;101071.47;4845042;29;20032;-79
2023/11/25 00:23:41;;;;;;;0.00;0.00;;;;;;;-0.19;90.63;101067.22;4826743;29;20484;-80
2023/11/25 00:26:09;;;;;;;0.00;0.00;;;;;;;-0.15;90.42;101078.44;4839884;29;20044;-81
2023/11/25 00:28:35;;;;;;;0.10;0.10;;;;;;;-0.24;90.93;101066.91;4846617;29;20029;-80
2023/11/25 00:31:00;;;;;;;0.10;0.10;;;;;;;-0.21;90.73;101080.00;4840430;29;20626;-79
2023/11/25 00:33:25;;;;;;;0.00;0.00;;;;;;;-0.27;91.24;101074.50;4822542;29;20033;-79
2023/11/25 00:35:51;;;;;;;0.00;0.00;;;;;;;-0.23;90.77;101065.91;4839854;29;20491;-79
2023/11/25 00:38:17;;;;;;;0.00;0.00;;;;;;;-0.24;91.21;101058.03;4822589;29;21219;-78
2023/11/25 00:40:47;;;;;;;0.08;0.08;;;;;;;-0.28;91.37;101041.41;4851233;29;20088;-80
2023/11/25 00:43:12;;;;;;;0.00;0.00;;;;;;;-0.18;91.48;101062.66;4840669;29;20533;-79
2023/11/25 00:45:38;;;;;;;0.00;0.00;;;;;;;-0.01;91.27;101087.59;4839829;29;20125;-79
2023/11/25 00:48:03;;;;;;;0.00;0.00;;;;;;;-0.10;90.68;101059.06;4859482;29;20123;-80
2023/11/25 00:50:29;;;;;;;0.00;0.00;;;;;;;-0.06;91.42;101060.41;4837198;29;20032;-80
2023/11/25 00:52:57;;;;;;;0.10;0.10;;;;;;;-0.08;91.51;101049.00;4841397;29;20057;-78
2023/11/25 00:55:23;;;;;;;0.00;0.00;;;;;;;-0.10;90.78;101046.50;4854226;29;20036;-78
2023/11/25 00:57:48;;;;;;;0.10;0.10;;;;;;;-0.07;90.97;101048.00;4853767;29;20388;-78
2023/11/25 01:00:15;;;;;;;0.00;0.00;;;;;;;0.11;90.80;101078.06;4871589;29;20037;-78
2023/11/25 01:02:44;;;;;;;0.10;0.10;;;;;;;-0.29;90.89;101031.69;4843406;29;20123;-78
2023/11/25 01:05:10;;;;;;;0.10;0.10;;;;;;;-0.21;91.71;101052.28;4872284;29;20057;-79
2023/11/25 01:07:38;;;;;;;0.00;0.00;;;;;;;-0.07;91.94;101081.06;4861565;29;20067;-78
2023/11/25 01:10:06;;;;;;;0.10;0.10;;;;;;;-0.28;91.60;101052.16;4873494;29;20476;-78
2023/11/25 01:12:42;;;;;;;0.00;0.00;;;;;;;-0.10;91.88;101078.75;4854707;29;20101;-78
2023/11/25 01:15:12;;;;;;;0.10;0.10;;;;;;;-0.35;91.94;101053.91;4832835;29;20133;-78
2023/11/25 01:17:38;;;;;;;0.00;0.00;;;;;;;-0.42;91.37;101044.88;4838416;29;20463;-80
2023/11/25 01:20:05;;;;;;;0.00;0.00;;;;;;;-0.37;91.31;101064.81;4867985;29;20089;-79
2023/11/25 01:22:31;;;;;;;0.10;0.10;;;;;;;-0.45;91.62;101064.88;4845737;29;20052;-79
2023/11/25 01:24:56;;;;;;;0.00;0.00;;;;;;;-0.45;91.18;101074.78;4839846;29;20104;-78
2023/11/25 01:27:24;;;;;;;0.00;0.00;;;;;;;-0.67;90.98;101068.34;4843709;29;20119;-78
2023/11/25 01:29:51;;;;;;;0.10;0.10;;;;;;;-0.57;92.21;101095.84;4846932;29;20036;-78
2023/11/25 01:32:16;;;;;;;0.00;0.00;;;;;;;-0.70;91.48;101091.06;4850129;29;20029;-80
2023/11/25 01:34:42;;;;;;;0.00;0.00;;;;;;;-0.62;91.46;101100.91;4835283;29;20037;-76
2023/11/25 01:37:08;;;;;;;0.10;0.10;;;;;;;-0.55;92.12;101100.03;4863386;29;20036;-77
2023/11/25 01:39:34;;;;;;;0.10;0.10;;;;;;;-0.61;91.84;101089.16;4860200;29;20041;-78
2023/11/25 01:42:00;;;;;;;0.10;0.10;;;;;;;-0.58;92.16;101095.00;4875053;29;20112;-78
2023/11/25 01:44:25;;;;;;;0.00;0.00;;;;;;;-0.63;92.29;101092.00;4843598;29;20099;-79
2023/11/25 01:46:58;;;;;;;0.10;0.10;;;;;;;-0.64;91.74;101095.72;4839996;29;20069;-78
2023/11/25 01:49:26;;;;;;;0.10;0.10;;;;;;;-0.62;92.10;101093.69;4858019;29;20377;-79
2023/11/25 01:51:52;;;;;;;0.10;0.10;;;;;;;-0.64;92.19;101090.34;4841388;29;20045;-79
2023/11/25 01:54:27;;;;;;;0.00;0.00;;;;;;;-0.58;92.55;101097.69;4861663;29;20056;-80
2023/11/25 01:56:58;;;;;;;0.10;0.10;;;;;;;-0.54;92.22;101101.72;4855116;29;20039;-79
2023/11/25 01:59:25;;;;;;;0.00;0.00;;;;;;;-0.56;91.96;101103.72;4852100;29;20025;-79
2023/11/25 02:01:51;;;;;;;0.00;0.00;;;;;;;-0.40;92.60;101121.59;4859580;29;20032;-80
2023/11/25 02:04:17;;;;;;;0.00;0.00;;;;;;;-0.55;92.58;101099.19;4842348;29;20045;-80
2023/11/25 02:06:42;;;;;;;0.00;0.00;;;;;;;-0.36;92.71;101116.72;4839444;29;20040;-80
2023/11/25 02:09:11;;;;;;;0.10;0.10;;;;;;;-0.32;92.43;101125.25;4842685;29;20178;-80
2023/11/25 02:11:57;;;;;;;0.00;0.00;;;;;;;-0.40;92.98;101118.09;4848762;29;20053;-79
2023/11/25 02:14:24;;;;;;;0.10;0.10;;;;;;;-0.50;93.30;101106.72;4862156;29;20033;-80
2023/11/25 02:16:51;;;;;;;0.10;0.10;;;;;;;-0.64;92.64;101111.84;4868096;29;20028;-80
2023/11/25 02:19:18;;;;;;;0.10;0.10;;;;;;;-0.56;92.55;101133.28;4863822;29;21607;-78
2023/11/25 02:21:44;;;;;;;0.10;0.10;;;;;;;-0.62;93.35;101127.78;4875962;29;20040;-79
2023/11/25 02:24:18;;;;;;;0.10;0.10;;;;;;;-0.76;92.83;101113.22;4856326;29;20059;-80
2023/11/25 02:26:43;;;;;;;0.00;0.00;;;;;;;-0.84;93.23;101116.78;4859480;29;20062;-79
2023/11/25 02:29:09;;;;;;;0.00;0.00;;;;;;;-0.69;94.07;101138.38;4857364;29;20033;-80
2023/11/25 02:31:38;;;;;;;0.00;0.00;;;;;;;-0.65;93.01;101133.50;4855408;29;21931;-78
2023/11/25 02:34:06;;;;;;;0.10;0.10;;;;;;;-0.71;93.85;101116.22;4855211;29;20060;-77
2023/11/25 02:36:33;;;;;;;0.00;0.00;;;;;;;-0.76;94.17;101097.09;4841795;29;20029;-76
2023/11/25 02:39:00;;;;;;;0.10;0.10;;;;;;;-0.60;93.53;101118.53;4830440;29;20048;-77
2023/11/25 02:41:28;;;;;;;0.10;0.10;;;;;;;-0.76;94.09;101099.78;4857240;29;20029;-78
2023/11/25 02:43:53;;;;;;;0.10;0.10;;;;;;;-0.61;94.33;101110.66;4863208;29;20207;-78
2023/11/25 02:46:18;;;;;;;0.00;0.00;;;;;;;-0.65;93.86;101104.78;4863776;29;20502;-79
2023/11/25 02:48:46;;;;;;;0.10;0.10;;;;;;;-0.58;94.17;101105.75;4847565;29;20391;-78
2023/11/25 02:51:11;;;;;;;0.00;0.00;;;;;;;-0.47;94.00;101125.19;4846872;29;20113;-77
2023/11/25 02:53:37;;;;;;;0.00;0.00;;;;;;;-0.56;94.59;101109.09;4837271;29;20090;-79
2023/11/25 02:56:03;;;;;;;0.00;0.00;;;;;;;-0.47;95.15;101122.50;4850217;29;20033;-78
2023/11/25 02:58:28;;;;;;;0.10;0.10;;;;;;;-0.49;95.16;101114.59;4846017;29;20025;-78
2023/11/25 03:01:01;;;;;;;0.00;0.00;;;;;;;-0.49;94.32;101108.41;4842621;29;20169;-78
2023/11/25 03:03:28;;;;;;;0.00;0.00;;;;;;;-0.62;95.29;101087.47;4838566;29;20039;-78
2023/11/25 03:05:53;;;;;;;0.00;0.00;;;;;;;-0.60;95.19;101097.06;4855134;29;20088;-78
2023/11/25 03:08:21;;;;;;;0.10;0.10;;;;;;;-0.52;95.38;101104.22;4856483;29;20440;-78
2023/11/25 03:10:47;;;;;;;0.10;0.10;;;;;;;-0.61;95.18;101084.63;4856763;29;20091;-78
2023/11/25 03:13:14;;;;;;;0.00;0.00;;;;;;;-0.52;95.52;101098.84;4837006;29;20037;-77
2023/11/25 03:15:41;;;;;;;0.10;0.10;;;;;;;-0.46;94.89;101102.69;4855685;29;20045;-78
2023/11/25 03:18:08;;;;;;;0.10;0.10;;;;;;;-0.50;95.02;101101.34;4874311;29;20044;-77
2023/11/25 03:20:38;;;;;;;0.10;0.10;;;;;;;-0.46;95.18;101108.06;4822450;29;20037;-76
2023/11/25 03:23:04;;;;;;;0.00;0.00;;;;;;;-0.44;94.95;101106.00;4847255;29;20037;-77
2023/11/25 03:25:30;;;;;;;0.00;0.00;;;;;;;-0.52;95.35;101087.28;4853348;29;20033;-77
2023/11/25 03:28:01;;;;;;;0.00;0.00;;;;;;;-0.46;95.18;101097.31;4845949;29;20030;-77
2023/11/25 03:30:29;;;;;;;0.00;0.00;;;;;;;-0.61;95.04;101067.69;4825503;29;20065;-78
2023/11/25 03:32:55;;;;;;;0.00;0.00;;;;;;;-0.60;94.21;101080.94;4844946;29;20072;-78
2023/11/25 03:35:21;;;;;;;0.00;0.00;;;;;;;-0.48;94.86;101094.81;4833727;29;20029;-77
2023/11/25 03:37:49;;;;;;;0.00;0.00;;;;;;;-0.60;94.16;101091.69;4839532;29;20029;-77
2023/11/25 03:40:15;;;;;;;0.00;0.00;;;;;;;-0.57;94.54;101101.22;4840729;29;20037;-77
2023/11/25 03:42:44;;;;;;;0.10;0.10;;;;;;;-0.67;94.83;101079.97;4824589;29;20698;-77
2023/11/25 03:45:12;;;;;;;0.00;0.00;;;;;;;-0.67;93.83;101074.59;4838140;29;20040;-78
2023/11/25 03:47:42;;;;;;;0.00;0.00;;;;;;;-0.60;94.41;101085.44;4860633;29;20029;-78
2023/11/25 03:50:08;;;;;;;0.10;0.10;;;;;;;-0.79;94.45;101049.13;4855985;29;20412;-78
2023/11/25 03:52:34;;;;;;;0.10;0.10;;;;;;;-0.66;93.67;101060.13;4850535;29;20100;-77
2023/11/25 03:55:02;;;;;;;0.10;0.10;;;;;;;-0.73;93.67;101059.16;4852532;29;20131;-78
2023/11/25 03:57:28;;;;;;;0.00;0.00;;;;;;;-0.61;93.99;101081.94;4854217;29;20096;-77
2023/11/25 03:59:56;;;;;;;0.10;0.10;;;;;;;-0.57;94.59;101075.19;4871398;29;20033;-78
2023/11/25 04:02:27;;;;;;;0.00;0.00;;;;;;;-0.58;94.30;101084.25;4858675;29;20033;-78
2023/11/25 04:04:52;;;;;;;0.10;0.10;;;;;;;-0.59;93.44;101087.94;4851454;29;20048;-77
2023/11/25 04:07:18;;;;;;;0.00;0.00;;;;;;;-0.61;94.64;101084.63;4852573;29;20037;-77
2023/11/25 04:09:43;;;;;;;0.00;0.00;;;;;;;-0.80;94.41;101052.84;4861387;29;20029;-79
2023/11/25 04:12:10;;;;;;;0.10;0.10;;;;;;;-0.83;93.71;101042.41;4854129;29;20040;-78
2023/11/25 04:14:38;;;;;;;0.00;0.00;;;;;;;-0.84;93.88;101051.50;4850170;29;20034;-79
2023/11/25 04:17:04;;;;;;;0.10;0.10;;;;;;;-0.91;94.22;101041.44;4847467;29;20037;-78
2023/11/25 04:19:30;;;;;;;0.10;0.10;;;;;;;-0.75;94.56;101062.00;4855992;29;20536;-78
2023/11/25 04:21:58;;;;;;;0.10;0.10;;;;;;;-0.84;93.56;101040.75;4852332;29;20152;-77
2023/11/25 04:24:26;;;;;;;0.10;0.10;;;;;;;-0.84;94.35;101046.97;4844025;29;20459;-77
2023/11/25 04:26:55;;;;;;;0.00;0.00;;;;;;;-0.86;94.25;101037.41;4858055;29;20036;-78
2023/11/25 04:29:20;;;;;;;0.00;0.00;;;;;;;-0.97;94.31;101031.41;4848339;29;20475;-78
2023/11/25 04:31:51;;;;;;;0.10;0.10;;;;;;;-0.93;93.87;101032.75;4854587;29;20033;-77
2023/11/25 04:34:36;;;;;;;0.10;0.10;;;;;;;-0.92;94.28;101036.25;4854401;29;20128;-77
2023/11/25 04:37:02;;;;;;;0.10;0.10;;;;;;;-1.03;93.99;101028.59;4869357;29;20097;-77
2023/11/25 04:39:35;;;;;;;0.10;0.10;;;;;;;-1.06;93.75;101024.41;4856971;29;20502;-78
2023/11/25 04:42:03;;;;;;;0.00;0.00;;;;;;;-1.06;94.76;101029.78;4873610;29;20036;-77
2023/11/25 04:44:29;;;;;;;0.10;0.10;;;;;;;-1.04;94.53;101040.34;4854608;29;20040;-77
2023/11/25 04:46:54;;;;;;;0.05;0.05;;;;;;;-1.15;94.74;101020.09;4857064;29;20116;-78
2023/11/25 04:49:21;;;;;;;0.10;0.10;;;;;;;-1.17;95.35;101008.69;4850233;29;20044;-79
2023/11/25 04:51:49;;;;;;;0.00;0.00;;;;;;;-1.03;95.36;101021.38;4854723;29;20092;-79
2023/11/25 04:54:15;;;;;;;0.10;0.10;;;;;;;-1.04;94.99;101008.97;4858916;29;20040;-78
2023/11/25 04:56:40;;;;;;;0.00;0.00;;;;;;;-1.00;94.99;100998.72;4824218;29;20029;-78
2023/11/25 04:59:06;;;;;;;0.10;0.10;;;;;;;-1.15;94.93;100982.53;4846258;29;20037;-77
2023/11/25 05:01:39;;;;;;;0.00;0.00;;;;;;;-0.90;95.20;101026.19;4838478;29;20040;-78
2023/11/25 05:04:05;;;;;;;0.00;0.00;;;;;;;-1.10;95.75;100982.81;4842870;29;20094;-77
2023/11/25 05:06:31;;;;;;;0.00;0.00;;;;;;;-1.04;95.61;100995.53;4827518;29;20033;-77
2023/11/25 05:08:56;;;;;;;0.10;0.10;;;;;;;-1.11;95.58;100982.00;4836587;29;20171;-78
2023/11/25 05:11:22;;;;;;;0.10;0.10;;;;;;;-1.24;95.17;100955.72;4857737;29;20041;-79
2023/11/25 05:13:47;;;;;;;0.10;0.10;;;;;;;-1.12;95.72;100974.13;4852386;29;20036;-77
2023/11/25 05:16:12;;;;;;;0.10;0.10;;;;;;;-1.17;95.75;100955.00;4861884;29;20368;-77
2023/11/25 05:18:38;;;;;;;0.00;0.00;;;;;;;-1.11;95.01;100967.72;4851897;29;20392;-78
2023/11/25 05:21:06;;;;;;;0.00;0.00;;;;;;;-0.94;95.36;100987.28;4860113;29;20084;-79
2023/11/25 05:23:32;;;;;;;0.00;0.00;;;;;;;-1.00;95.55;100978.06;4847209;29;20108;-76
2023/11/25 05:25:57;;;;;;;0.10;0.10;;;;;;;-0.98;95.71;100981.44;4872475;29;20061;-77
2023/11/25 05:28:23;;;;;;;0.10;0.10;;;;;;;-0.99;94.92;100985.13;4839294;29;20041;-79
2023/11/25 05:30:48;;;;;;;0.10;0.10;;;;;;;-1.07;95.26;100966.38;4822559;29;20044;-79
2023/11/25 05:33:13;;;;;;;0.00;0.00;;;;;;;-1.10;95.35;100972.91;4854616;29;20034;-78
2023/11/25 05:35:39;;;;;;;0.00;0.00;;;;;;;-1.21;94.99;100961.72;4835582;29;20025;-78
2023/11/25 05:38:04;;;;;;;0.10;0.10;;;;;;;-1.20;95.57;100971.47;4845072;29;20032;-78
2023/11/25 05:40:30;;;;;;;0.10;0.10;;;;;;;-1.16;94.67;100980.84;4836082;29;20457;-78
2023/11/25 05:42:57;;;;;;;0.10;0.10;;;;;;;-1.25;94.98;100980.88;4853774;29;20037;-77
2023/11/25 05:45:37;;;;;;;;;;;;;;;;;;;;;
2023/11/25 05:48:03;;;;;;;0.10;0.10;;;;;;;-1.37;94.68;100971.53;4866390;29;20405;-78
2023/11/25 05:50:31;;;;;;;0.10;0.10;;;;;;;-1.37;95.65;100981.44;4848086;29;20111;-79
2023/11/25 05:52:59;;;;;;;0.00;0.00;;;;;;;-1.31;95.75;100995.00;4852538;29;20100;-79
2023/11/25 05:55:26;;;;;;;0.10;0.10;;;;;;;-1.41;95.19;100980.94;4856706;29;20072;-78
2023/11/25 05:57:52;;;;;;;0.00;0.00;;;;;;;-1.51;95.73;100966.91;4834054;29;20040;-79
2023/11/25 06:00:18;;;;;;;0.10;0.10;;;;;;;-1.42;95.22;100979.28;4869689;29;20036;-78
2023/11/25 06:02:47;;;;;;;0.10;0.10;;;;;;;-1.47;95.20;100978.97;4842988;29;20390;-79
2023/11/25 06:05:15;;;;;;;0.10;0.10;;;;;;;-1.38;94.75;100996.69;4852139;29;20028;-79
2023/11/25 06:07:40;;;;;;;0.10;0.10;;;;;;;-1.59;96.21;100979.34;4838675;29;20128;-79
2023/11/25 06:10:07;;;;;;;0.10;0.10;;;;;;;-1.63;95.05;100972.63;4853498;29;20505;-77
2023/11/25 06:12:32;;;;;;;0.00;0.00;;;;;;;-1.60;95.17;100988.38;4830580;29;20145;-78
2023/11/25 06:14:58;;;;;;;0.10;0.10;;;;;;;-1.69;95.34;100978.69;4853335;29;20149;-77
2023/11/25 06:17:24;;;;;;;0.10;0.10;;;;;;;-1.70;96.04;100993.09;4843689;29;20062;-79
2023/11/25 06:19:52;;;;;;;0.10;0.10;;;;;;;-1.65;95.87;101004.16;4834989;29;20036;-77
2023/11/25 06:22:17;;;;;;;0.10;0.10;;;;;;;-1.62;96.56;101016.38;4861335;29;20052;-77
2023/11/25 06:24:45;;;;;;;0.00;0.00;;;;;;;-1.68;95.29;101007.19;4826609;29;20404;-77
2023/11/25 06:27:11;;;;;;;0.10;0.10;;;;;;;-1.67;95.82;101014.22;4838943;29;21426;-78
2023/11/25 06:29:39;;;;;;;0.10;0.10;;;;;;;-1.68;95.72;101023.28;4859754;29;20033;-77
2023/11/25 06:32:05;;;;;;;0.10;0.10;;;;;;;-1.80;95.64;101009.38;4820207;29;20033;-77
2023/11/25 06:34:31;;;;;;;0.10;0.10;;;;;;;-1.70;95.61;101024.47;4854501;29;20072;-77
2023/11/25 06:36:59;;;;;;;0.00;0.00;;;;;;;-1.73;95.61;101020.25;4845270;29;20036;-77
2023/11/25 06:39:26;;;;;;;0.10;0.10;;;;;;;-1.83;96.36;101008.88;4831462;29;20032;-77
2023/11/25 06:41:53;;;;;;;0.08;0.08;;;;;;;-1.73;96.15;101011.41;4858032;29;20384;-77
2023/11/25 06:44:21;;;;;;;0.00;0.00;;;;;;;-1.72;95.34;101016.59;4842890;29;20021;-80
2023/11/25 06:46:49;;;;;;;0.05;0.05;;;;;;;-1.71;95.76;101012.88;4840854;29;20110;-78
2023/11/25 06:49:16;;;;;;;0.10;0.10;;;;;;;-1.78;96.06;100995.81;4837761;29;20047;-79
2023/11/25 06:51:42;;;;;;;0.10;0.10;;;;;;;-1.63;95.03;101022.78;4863693;29;20021;-77
2023/11/25 06:54:09;;;;;;;0.00;0.00;;;;;;;-1.69;95.76;101016.25;4872039;29;20037;-78
2023/11/25 06:56:35;;;;;;;0.10;0.10;;;;;;;-1.69;95.17;101008.19;4867976;29;20653;-78
2023/11/25 06:59:02;;;;;;;0.10;0.10;;;;;;;-1.60;95.90;101033.16;4869161;29;20028;-78
2023/11/25 07:01:29;;;;;;;0.00;0.00;;;;;;;-1.70;96.24;101036.00;4847052;29;20029;-77
2023/11/25 07:03:55;;;;;;;0.10;0.10;;;;;;;-1.79;96.13;101018.28;4852447;29;20424;-80
2023/11/25 07:06:21;;;;;;;0.10;0.10;;;;;;;-1.88;96.03;101000.50;4853304;29;20037;-79
2023/11/25 07:08:49;;;;;;;0.10;0.10;;;;;;;-1.87;96.01;101007.56;4859285;29;20400;-78
2023/11/25 07:11:18;;;;;;;0.00;0.00;;;;;;;-1.84;95.83;101018.78;4870125;29;20052;-77
2023/11/25 07:13:43;;;;;;;0.00;0.00;;;;;;;-1.98;96.06;100996.16;4842459;29;20457;-77
2023/11/25 07:16:11;;;;;;;0.00;0.00;;;;;;;-1.89;96.74;101020.28;4874414;29;20033;-77
2023/11/25 07:18:42;;;;;;;0.10;0.10;;;;;;;-1.98;96.71;101014.94;4852334;29;20032;-79
2023/11/25 07:21:13;;;;;;;0.10;0.10;;;;;;;-2.08;96.07;101016.94;4862868;29;20033;-78
2023/11/25 07:23:45;;;;;;;0.10;0.10;;;;;;;-2.12;96.18;101034.38;4854506;29;20030;-78
2023/11/25 07:26:11;;;;;;;0.05;0.05;;;;;;;-2.23;96.90;101029.34;4859286;29;20121;-77
2023/11/25 07:28:38;;;;;;;0.10;0.10;;;;;;;-2.34;97.09;101023.31;4855247;29;20033;-78
2023/11/25 07:31:04;;;;;;;0.10;0.10;;;;;;;-2.40;97.46;101013.25;4864694;29;20041;-78
2023/11/25 07:33:30;;;;;;;0.10;0.10;;;;;;;-2.37;96.43;101022.81;4854978;29;21287;-77
2023/11/25 07:35:55;;;;;;;0.10;0.10;;;;;;;-2.55;96.90;100991.66;4855867;29;20028;-78
2023/11/25 07:38:21;;;;;;;0.10;0.10;;;;;;;-2.47;96.98;101006.88;4855743;29;20044;-80
2023/11/25 07:40:46;;;;;;;0.10;0.10;;;;;;;-2.50;97.03;101008.09;4821550;29;20030;-79
2023/11/25 07:43:15;;;;;;;0.10;0.10;;;;;;;-2.44;96.68;101027.97;4856769;29;20517;-78
2023/11/25 07:45:41;;;;;;;0.10;0.10;;;;;;;-2.52;97.04;101019.97;4837046;29;20065;-78
2023/11/25 07:48:07;;;;;;;0.00;0.00;;;;;;;-2.47;97.24;101039.03;4839148;29;20437;-79
2023/11/25 07:50:32;;;;;;;0.10;0.10;;;;;;;-2.51;97.46;101032.31;4864294;29;20033;-78
2023/11/25 07:52:58;;;;;;;0.10;0.10;;;;;;;-2.42;97.00;101031.34;4823449;29;21036;-78
2023/11/25 07:55:27;;;;;;;0.10;0.10;;;;;;;-2.42;97.00;101020.63;4831962;29;20037;-78
2023/11/25 07:58:15;;;;;;;0.10;0.10;;;;;;;-2.34;97.50;101023.31;4832400;29;20037;-79
2023/11/25 08:08:48;;;;;;;0.10;0.10;;;;;;;-2.17;96.02;100975.09;4216605;27;20068;-78
2023/11/25 08:11:24;;;;;;;0.10;0.10;;;;;;;-1.86;95.43;101014.59;4881837;29;20029;-78
2023/11/25 08:13:50;;;;;;;0.10;0.10;;;;;;;-1.67;95.37;101035.66;4863995;29;20036;-77
2023/11/25 08:16:18;;;;;;;0.10;0.10;;;;;;;-1.74;95.26;101007.03;4852800;29;20025;-79
2023/11/25 08:18:52;;;;;;;0.10;0.10;;;;;;;-1.47;95.08;101038.81;4867881;29;20032;-79
2023/11/25 08:21:18;;;;;;;0.10;0.10;;;;;;;-1.45;95.18;101022.53;4860385;29;20096;-78
2023/11/25 08:23:46;;;;;;;0.10;0.10;;;;;;;-1.45;95.03;101022.53;4850494;29;20673;-80
2023/11/25 08:26:25;;;;;;;0.10;0.10;;;;;;;-1.47;95.35;101005.78;4855922;29;20029;-78
2023/11/25 08:29:01;;;;;;;0.10;0.10;;;;;;;-1.41;94.64;100997.03;4875925;29;20036;-79
2023/11/25 08:31:28;;;;;;;0.10;0.10;;;;;;;-1.31;95.25;101003.03;4857958;29;20064;-79
2023/11/25 08:34:01;;;;;;;0.10;0.10;;;;;;;-1.25;94.48;101007.72;4857125;29;20483;-79
2023/11/25 08:36:45;;;;;;;0.10;0.10;;;;;;;-1.04;95.15;101026.94;4873475;29;20034;-79
2023/11/25 08:39:14;;;;;;;0.00;0.00;;;;;;;-1.08;94.85;101002.25;4876304;29;20076;-80
2023/11/25 08:41:52;;;;;;;0.00;0.00;;;;;;;-1.08;94.59;100997.75;4838033;29;20064;-79
2023/11/25 08:44:21;;;;;;;0.10;0.10;;;;;;;-0.97;94.52;101001.88;4846233;29;20478;-79
2023/11/25 08:46:50;;;;;;;0.10;0.10;;;;;;;-0.93;94.37;101011.25;4879200;29;20021;-80
2023/11/25 08:49:18;;;;;;;0.10;0.10;;;;;;;-0.81;94.22;101013.56;4865362;29;20111;-80
2023/11/25 08:52:02;;;;;;;0.00;0.00;;;;;;;-0.64;94.11;101030.38;4853774;29;20029;-80
2023/11/25 08:54:36;;;;;;;0.10;0.10;;;;;;;-0.31;94.33;101063.25;4867276;29;20487;-78
2023/11/25 08:57:04;;;;;;;;;;;;;;;-0.19;93.04;101063.69;4873131;29;20080;-78
2023/11/25 08:59:31;;;;;;;0.10;0.10;;;;;;;-0.21;92.91;101042.34;4866561;29;20630;-78
2023/11/25 09:01:57;;;;;;;0.10;0.10;;;;;;;-0.20;93.02;101033.28;4838318;29;20036;-79
2023/11/25 09:04:37;;;;;;;;;;;;;;;;;;;;;
2023/11/25 09:07:13;;;;;;;;;;;;;;;;;;;;;
2023/11/25 09:09:39;;;;;;;0.10;0.10;;;;;;;0.61;92.16;101037.25;4860524;29;20811;-80
2023/11/25 09:12:05;;;;;;;0.00;0.00;;;;;;;3.12;91.04;101048.06;4842724;29;20128;-79
2023/11/25 09:14:35;;;;;;;0.00;0.00;;;;;;;6.53;70.87;101046.38;4863871;29;20014;-79
2023/11/25 09:17:01;;;;;;;0.10;0.10;;;;;;;9.22;59.83;101040.22;4869946;29;20124;-79
2023/11/25 09:19:26;;;;;;;0.10;0.10;;;;;;;11.95;51.94;101052.50;4836751;29;20460;-80
2023/11/25 09:21:52;;;;;;;0.00;0.00;;;;;;;14.06;45.59;101031.56;4838016;29;20041;-81
2023/11/25 09:24:19;;;;;;;0.00;0.00;;;;;;;15.60;41.26;101046.03;4848012;29;20057;-79
2023/11/25 09:26:55;;;;;;;;;;;;;;;;;;;;;
2023/11/25 09:29:21;;;;;;;0.10;0.10;;;;;;;17.15;36.99;101051.06;4863748;29;20471;-80
2023/11/25 09:31:49;;;;;;;0.00;0.00;;;;;;;17.98;34.70;101036.94;4847438;29;20037;-80
2023/11/25 09:34:17;;;;;;;0.10;0.10;;;;;;;19.19;33.99;101036.94;4879959;29;20049;-79
2023/11/25 09:36:50;;;;;;;0.10;0.10;;;;;;;21.24;32.23;101039.31;4825998;29;20021;-79
2023/11/25 09:39:18;;;;;;;0.00;0.00;;;;;;;22.45;30.17;101041.66;4865053;29;20504;-79
2023/11/25 09:41:48;;;;;;;0.03;0.03;;;;;;;23.92;29.63;101048.75;4844406;29;20033;-80
2023/11/25 09:44:14;;;;;;;0.00;0.00;;;;;;;25.24;29.09;101074.94;4840507;29;20029;-78
2023/11/25 09:46:40;;;;;;;0.08;0.08;;;;;;;25.68;27.75;101056.72;4842073;29;20047;-79
2023/11/25 09:49:06;;;;;;;0.00;0.00;;;;;;;25.87;26.35;101042.88;4850595;29;20037;-78
2023/11/25 09:51:34;;;;;;;0.00;0.00;;;;;;;26.37;26.89;101042.69;4853494;29;22005;-77
2023/11/25 09:54:07;;;;;;;0.00;0.00;;;;;;;26.54;24.98;101045.16;4856686;29;20045;-78
2023/11/25 09:56:37;;;;;;;0.10;0.10;;;;;;;26.74;24.68;101048.09;4851444;29;20115;-81
2023/11/25 09:59:03;;;;;;;0.00;0.00;;;;;;;27.20;24.36;101054.03;4880226;29;20124;-79
2023/11/25 10:01:30;;;;;;;0.00;0.00;;;;;;;26.75;22.42;101038.50;4843857;29;20045;-79
2023/11/25 10:03:57;;;;;;;0.00;0.00;;;;;;;26.17;22.55;101045.38;4880716;29;20036;-80
2023/11/25 10:06:26;;;;;;;0.00;0.00;;;;;;;26.41;22.30;101035.19;4861529;29;20029;-79
2023/11/25 10:08:53;;;;;;;0.00;0.00;;;;;;;26.87;22.27;101032.81;4851646;29;21603;-77
2023/11/25 10:11:22;;;;;;;0.00;0.00;;;;;;;28.29;21.81;101046.75;4839473;29;20045;-79
2023/11/25 10:13:48;;;;;;;0.00;0.00;;;;;;;29.92;21.47;101056.63;4851831;29;20485;-79
2023/11/25 10:16:29;;;;;;;0.00;0.00;;;;;;;30.88;21.26;101037.44;4871512;29;20093;-79
2023/11/25 10:19:18;;;;;;;0.00;0.00;;;;;;;30.64;19.16;101045.31;4868920;29;20110;-78
2023/11/25 10:21:47;;;;;;;0.00;0.00;;;;;;;31.04;18.86;101040.81;4873802;29;20032;-78
2023/11/25 10:24:17;;;;;;;0.00;0.00;;;;;;;31.31;18.40;101038.59;4856227;29;20472;-77
2023/11/25 10:26:50;;;;;;;0.00;0.00;;;;;;;31.34;17.52;101020.06;4843280;29;21545;-78
2023/11/25 10:29:19;;;;;;;0.00;0.00;;;;;;;31.67;17.58;101026.69;4844497;29;20069;-78
2023/11/25 10:31:45;;;;;;;0.00;0.00;;;;;;;31.77;16.48;101013.81;4871882;29;20025;-79
2023/11/25 10:34:10;;;;;;;0.00;0.00;;;;;;;30.53;16.05;101021.84;4855466;29;20668;-80
2023/11/25 10:36:38;;;;;;;0.00;0.00;;;;;;;29.76;16.07;101022.97;4868276;29;20527;-79
2023/11/25 10:39:08;;;;;;;0.00;0.00;;;;;;;29.68;16.63;101018.44;4861453;29;20025;-77
2023/11/25 10:41:39;;;;;;;0.00;0.00;;;;;;;29.84;17.22;101014.66;4854495;29;20670;-78
2023/11/25 10:44:07;;;;;;;0.00;0.00;;;;;;;30.21;16.90;101028.75;4863860;29;20476;-77
2023/11/25 10:46:41;;;;;;;0.00;0.00;;;;;;;30.58;16.46;101024.31;4850546;29;20033;-77
2023/11/25 10:49:08;;;;;;;0.00;0.00;;;;;;;30.05;16.49;101011.25;4862463;29;20025;-79
2023/11/25 10:51:38;;;;;;;0.00;0.00;;;;;;;30.76;16.80;100982.91;4860584;29;20128;-78
2023/11/25 10:54:08;;;;;;;0.00;0.00;;;;;;;31.80;16.33;100991.19;4883909;29;20041;-77
2023/11/25 10:56:35;;;;;;;0.00;0.00;;;;;;;32.69;16.58;100995.41;4853206;29;20032;-78
2023/11/25 10:59:01;;;;;;;0.00;0.00;;;;;;;33.52;15.55;100988.81;4867051;29;20020;-78
2023/11/25 11:01:31;;;;;;;0.00;0.00;;;;;;;33.89;15.07;100999.59;4858372;29;20101;-78
2023/11/25 11:04:09;;;;;;;0.00;0.00;;;;;;;34.25;14.09;100985.19;4866987;29;20024;-78
2023/11/25 11:06:47;;;;;;;0.00;0.00;;;;;;;34.55;14.33;100992.28;4858332;29;20033;-78
2023/11/25 11:09:19;;;;;;;0.00;0.00;;;;;;;35.07;13.54;100999.13;4866540;29;20049;-78
2023/11/25 11:11:50;;;;;;;0.00;0.00;;;;;;;34.90;13.78;100998.91;4846056;29;20035;-77
2023/11/25 11:14:19;;;;;;;0.00;0.00;;;;;;;35.51;14.13;100983.22;4867524;29;20025;-77
2023/11/25 11:16:48;;;;;;;0.00;0.00;;;;;;;35.23;13.28;100990.81;4870451;29;20029;-79
2023/11/25 11:19:16;;;;;;;0.00;0.00;;;;;;;34.90;13.92;100979.00;4862085;29;20045;-77
2023/11/25 11:21:45;;;;;;;0.00;0.00;;;;;;;35.07;13.59;100982.06;4845541;29;20029;-79
2023/11/25 11:24:18;;;;;;;0.00;0.00;;;;;;;35.19;13.71;100989.25;4891789;29;20025;-78
2023/11/25 11:26:56;;;;;;;0.00;0.00;;;;;;;34.70;13.10;100970.25;4851231;29;20037;-76
2023/11/25 11:29:57;;;;;;;0.00;0.00;;;;;;;34.58;12.91;101002.81;4869583;29;20068;-78
2023/11/25 11:32:31;;;;;;;0.00;0.00;;;;;;;33.12;13.09;100966.25;4855949;29;20041;-78
2023/11/25 11:34:57;;;;;;;0.00;0.00;;;;;;;33.04;13.36;100958.97;4869744;29;20050;-78
2023/11/25 11:37:36;;;;;;;0.00;0.00;;;;;;;32.31;14.34;100952.53;4867655;29;20429;-78
2023/11/25 11:40:01;;;;;;;0.00;0.00;;;;;;;32.08;14.38;100966.22;4879603;29;20069;-77
2023/11/25 11:42:34;;;;;;;0.00;0.00;;;;;;;32.44;14.25;100960.63;4834181;29;20057;-78
2023/11/25 11:45:15;;;;;;;0.00;0.00;;;;;;;33.99;14.28;100965.91;4863828;29;20480;-77